Time;durP1;ratioP1;P1;durP2;ratioP2;P2;SDS_P1;SDS_P2;PMS_P1;PMS_P2;Temp;Humidity;BMP_temperature;BMP_pressure;BME280_temperature;BME280_humidity;BME280_pressure;Samples;Min_cycle;Max_cycle;Signal;HPM_P1;HPM_P2
2022/08/17 00:01:29;;;;;;;0.20;0.20;;;;;;;28.49;39.87;94791.25;5057517;28;20203;-62
2022/08/17 00:04:18;;;;;;;3.30;1.60;;;;;;;28.08;40.19;94791.59;5047648;28;20287;-64
2022/08/17 00:06:45;;;;;;;0.40;0.40;;;;;;;28.52;39.11;94790.53;5044798;28;20664;-62
2022/08/17 00:09:16;;;;;;;0.50;0.50;;;;;;;28.30;39.95;94794.16;5045703;28;20204;-64
2022/08/17 00:11:46;;;;;;;0.53;0.53;;;;;;;28.28;39.84;94793.75;5072447;28;20204;-64
2022/08/17 00:14:34;;;;;;;0.30;0.30;;;;;;;28.13;39.68;94793.94;5040834;28;20285;-64
2022/08/17 00:17:05;;;;;;;1.33;0.60;;;;;;;27.90;40.18;94797.50;5066463;28;20226;-63
2022/08/17 00:19:32;;;;;;;0.73;0.73;;;;;;;27.41;40.78;94790.72;5072461;28;20217;-63
2022/08/17 00:22:01;;;;;;;3.30;1.17;;;;;;;27.23;40.99;94797.72;5045994;28;20249;-61
2022/08/17 00:24:49;;;;;;;0.37;0.37;;;;;;;27.42;40.27;94792.28;5040921;28;20201;-64
2022/08/17 00:27:16;;;;;;;0.27;0.27;;;;;;;27.60;40.63;94788.69;5051322;28;20563;-61
2022/08/17 00:29:44;;;;;;;1.07;0.67;;;;;;;27.57;40.46;94785.94;5038082;28;20204;-62
2022/08/17 00:32:12;;;;;;;5.53;2.10;;;;;;;27.35;40.59;94790.28;5065501;28;20930;-63
2022/08/17 00:35:03;;;;;;;1.40;0.60;;;;;;;27.55;40.28;94790.91;5056060;28;20189;-63
2022/08/17 00:37:30;;;;;;;1.70;0.67;;;;;;;27.70;40.81;94787.28;5062333;28;20630;-64
2022/08/17 00:39:57;;;;;;;0.40;0.40;;;;;;;27.82;40.00;94787.03;5072262;28;20188;-62
2022/08/17 00:42:24;;;;;;;15.63;1.10;;;;;;;27.38;40.80;94786.84;5044698;28;20233;-63
2022/08/17 00:44:57;;;;;;;1.33;0.60;;;;;;;27.78;39.46;94778.13;5038611;28;20200;-62
2022/08/17 00:47:24;;;;;;;0.60;0.53;;;;;;;27.66;39.12;94772.97;5064275;28;20203;-63
2022/08/17 00:49:51;;;;;;;1.10;1.07;;;;;;;27.43;40.42;94777.66;5035580;28;20312;-62
2022/08/17 00:52:21;;;;;;;0.37;0.37;;;;;;;27.60;40.05;94771.75;5041555;28;20230;-61
2022/08/17 00:54:52;;;;;;;1.00;0.90;;;;;;;27.67;40.54;94766.44;5067988;28;20203;-62
2022/08/17 00:57:28;;;;;;;2.77;1.83;;;;;;;27.68;40.71;94773.41;5031380;28;20318;-63
2022/08/17 01:00:05;;;;;;;0.33;0.33;;;;;;;27.52;41.04;94773.56;5032139;28;20203;-62
2022/08/17 01:02:38;;;;;;;0.40;0.40;;;;;;;27.53;40.55;94771.66;5038655;28;20286;-65
2022/08/17 01:05:13;;;;;;;0.40;0.40;;;;;;;27.54;40.70;94773.19;5065309;28;20297;-62
2022/08/17 01:07:41;;;;;;;0.37;0.37;;;;;;;27.64;40.27;94772.56;5046258;28;20227;-63
2022/08/17 01:10:11;;;;;;;0.40;0.40;;;;;;;27.67;40.70;94774.53;5071146;28;20638;-64
2022/08/17 01:13:01;;;;;;;11.80;1.13;;;;;;;27.69;40.60;94780.31;5071208;28;20219;-63
2022/08/17 01:15:36;;;;;;;9.43;1.27;;;;;;;27.51;41.10;94780.09;5071316;28;20204;-62
2022/08/17 01:18:06;;;;;;;1.30;1.13;;;;;;;27.46;40.61;94779.66;5071377;28;20282;-63
2022/08/17 01:20:40;;;;;;;0.30;0.30;;;;;;;27.56;40.30;94765.53;5040178;28;20205;-63
2022/08/17 01:23:16;;;;;;;0.50;0.50;;;;;;;27.47;40.49;94779.28;5050453;28;20673;-66
2022/08/17 01:25:50;;;;;;;0.50;0.50;;;;;;;27.51;40.51;94780.09;5067300;28;20639;-63
2022/08/17 01:28:18;;;;;;;0.70;0.70;;;;;;;27.45;40.67;94786.94;5060493;28;20249;-63
2022/08/17 01:31:07;;;;;;;0.40;0.40;;;;;;;27.23;41.20;94778.88;5057177;28;20619;-63
2022/08/17 01:33:34;;;;;;;0.70;0.70;;;;;;;27.21;41.23;94770.44;5060696;28;20188;-61
2022/08/17 01:36:03;;;;;;;0.70;0.70;;;;;;;27.25;40.91;94776.63;5047087;28;20229;-64
2022/08/17 01:38:30;;;;;;;0.33;0.30;;;;;;;27.38;40.47;94773.38;5049273;28;20686;-64
2022/08/17 01:41:03;;;;;;;0.30;0.30;;;;;;;27.31;40.89;94769.81;5042197;28;20193;-64
2022/08/17 01:43:59;;;;;;;0.93;0.57;;;;;;;27.20;41.05;94771.56;5062337;28;20204;-64
2022/08/17 01:46:30;;;;;;;0.63;0.63;;;;;;;27.07;41.08;94770.22;5064580;28;20208;-64
2022/08/17 01:48:58;;;;;;;0.70;0.70;;;;;;;27.02;41.25;94769.38;5062075;28;20681;-62
2022/08/17 01:51:31;;;;;;;0.60;0.60;;;;;;;27.03;41.14;94765.56;5036951;28;20200;-63
2022/08/17 01:54:01;;;;;;;0.83;0.83;;;;;;;26.89;41.63;94770.75;5030633;28;20693;-64
2022/08/17 01:56:30;;;;;;;0.77;0.77;;;;;;;26.97;41.43;94783.13;5033732;28;20311;-61
2022/08/17 01:58:57;;;;;;;0.30;0.30;;;;;;;26.94;41.58;94783.88;5044537;28;20561;-62
2022/08/17 02:01:26;;;;;;;0.50;0.50;;;;;;;26.98;41.60;94782.00;5054033;28;20226;-63
2022/08/17 02:03:54;;;;;;;1.07;0.97;;;;;;;26.83;41.87;94790.22;5070428;28;20192;-65
2022/08/17 02:06:30;;;;;;;0.20;0.20;;;;;;;26.72;42.51;94797.31;5070200;28;20200;-64
2022/08/17 02:09:11;;;;;;;0.77;0.77;;;;;;;26.64;42.50;94791.03;5050267;28;20200;-65
2022/08/17 02:11:43;;;;;;;0.53;0.53;;;;;;;26.28;43.40;94794.22;5050252;28;20212;-64
2022/08/17 02:14:12;;;;;;;0.33;0.33;;;;;;;26.34;42.78;94786.66;5055180;28;20184;-60
2022/08/17 02:16:39;;;;;;;1.03;0.60;;;;;;;26.61;42.36;94786.38;5070169;28;20227;-64
2022/08/17 02:19:12;;;;;;;1.07;0.63;;;;;;;26.82;41.63;94786.72;5070365;28;20214;-63
2022/08/17 02:21:41;;;;;;;1.40;1.30;;;;;;;26.28;43.04;94791.53;5069242;28;20291;-62
2022/08/17 02:24:14;;;;;;;0.50;0.50;;;;;;;26.30;42.98;94789.28;5067110;28;20625;-66
2022/08/17 02:26:41;;;;;;;0.60;0.60;;;;;;;26.01;43.58;94776.44;5059909;28;20245;-66
2022/08/17 02:29:08;;;;;;;0.63;0.63;;;;;;;25.97;43.66;94780.94;5041635;28;20258;-65
2022/08/17 02:31:35;;;;;;;1.17;0.93;;;;;;;26.16;43.57;94786.34;5053583;28;20203;-64
2022/08/17 02:34:02;;;;;;;1.67;0.70;;;;;;;26.26;43.03;94780.38;5058906;28;20230;-66
2022/08/17 02:36:33;;;;;;;0.30;0.30;;;;;;;26.46;42.66;94789.19;5070093;28;20319;-64
2022/08/17 02:39:04;;;;;;;0.77;0.77;;;;;;;26.44;42.48;94789.53;5056525;28;20249;-65
2022/08/17 02:41:31;;;;;;;0.60;0.60;;;;;;;26.35;42.70;94791.66;5042039;28;20231;-62
2022/08/17 02:43:59;;;;;;;0.43;0.43;;;;;;;26.30;43.01;94791.19;5058148;28;20211;-65
2022/08/17 02:46:26;;;;;;;0.10;0.10;;;;;;;26.43;42.58;94795.25;5054040;28;20566;-64
2022/08/17 02:48:53;;;;;;;0.23;0.23;;;;;;;26.41;42.48;94792.94;5070035;28;20208;-61
2022/08/17 02:51:19;;;;;;;0.73;0.73;;;;;;;26.37;42.55;94792.09;5040016;28;20239;-62
2022/08/17 02:53:47;;;;;;;5.80;0.90;;;;;;;26.49;42.21;94793.84;5041134;28;20277;-64
2022/08/17 02:56:13;;;;;;;0.80;0.80;;;;;;;26.38;42.52;94799.03;5035773;28;20903;-62
2022/08/17 02:58:40;;;;;;;1.23;1.13;;;;;;;26.25;43.24;94788.78;5060873;28;20236;-64
2022/08/17 03:01:09;;;;;;;0.40;0.40;;;;;;;26.08;43.27;94805.34;5059157;28;20259;-64
2022/08/17 03:03:37;;;;;;;1.10;0.97;;;;;;;26.18;43.01;94800.19;5069674;28;20253;-64
2022/08/17 03:06:05;;;;;;;0.70;0.70;;;;;;;26.08;43.52;94799.97;5069925;28;20200;-63
2022/08/17 03:08:34;;;;;;;0.50;0.50;;;;;;;26.06;43.29;94808.38;5069366;28;20203;-64
2022/08/17 03:11:00;;;;;;;0.70;0.70;;;;;;;26.05;43.43;94801.47;5062947;28;20192;-61
2022/08/17 03:13:29;;;;;;;0.70;0.70;;;;;;;25.92;43.87;94797.34;5036634;28;20219;-63
2022/08/17 03:15:56;;;;;;;0.97;0.80;;;;;;;26.08;43.64;94800.75;5068005;28;20608;-64
2022/08/17 03:18:24;;;;;;;0.70;0.70;;;;;;;26.03;43.70;94803.72;5069590;28;20202;-62
2022/08/17 03:21:00;;;;;;;0.80;0.80;;;;;;;25.86;43.42;94820.22;5055177;28;20237;-64
2022/08/17 03:23:27;;;;;;;0.50;0.50;;;;;;;25.44;44.68;94819.34;5051242;28;20200;-63
2022/08/17 03:25:56;;;;;;;0.63;0.63;;;;;;;25.48;44.76;94820.19;5058565;28;20204;-64
2022/08/17 03:28:23;;;;;;;0.40;0.40;;;;;;;25.70;44.30;94816.84;5067295;28;20210;-65
2022/08/17 03:30:50;;;;;;;0.30;0.30;;;;;;;25.58;44.31;94803.56;5057072;28;20269;-64
2022/08/17 03:33:18;;;;;;;1.07;0.93;;;;;;;25.64;44.00;94812.88;5072310;28;20199;-61
2022/08/17 03:35:45;;;;;;;1.80;1.07;;;;;;;25.68;43.98;94813.72;5073371;28;20188;-65
2022/08/17 03:38:12;;;;;;;0.97;0.60;;;;;;;25.88;43.75;94824.13;5073429;28;20586;-63
2022/08/17 03:40:42;;;;;;;1.13;1.03;;;;;;;25.77;43.91;94811.63;5059270;28;20195;-65
2022/08/17 03:43:28;;;;;;;3.27;1.27;;;;;;;25.74;44.09;94821.16;5040207;28;20307;-62
2022/08/17 03:57:17;;;;;;;0.90;0.90;;;;;;;25.65;43.89;94825.19;5039081;28;20231;-63
2022/08/17 03:59:45;;;;;;;1.13;1.03;;;;;;;25.62;44.93;94833.94;5052119;28;20749;-60
2022/08/17 04:02:18;;;;;;;1.47;0.93;;;;;;;25.67;44.67;94830.97;5033055;28;20201;-61
2022/08/17 04:04:49;;;;;;;0.73;0.73;;;;;;;25.91;43.69;94834.16;5032824;28;20759;-65
2022/08/17 04:07:18;;;;;;;0.50;0.50;;;;;;;25.89;43.71;94835.66;5034549;28;20212;-65
2022/08/17 04:09:47;;;;;;;0.83;0.83;;;;;;;25.84;44.19;94828.66;5034891;28;20197;-62
2022/08/17 04:12:17;;;;;;;1.30;1.20;;;;;;;25.73;44.19;94834.94;5030709;28;20189;-62
2022/08/17 04:14:44;;;;;;;0.70;0.70;;;;;;;25.72;44.32;94844.09;5031269;28;20200;-62
2022/08/17 04:17:22;;;;;;;1.47;0.93;;;;;;;25.46;45.24;94843.91;5051306;28;20227;-63
2022/08/17 04:19:49;;;;;;;0.83;0.83;;;;;;;25.26;44.86;94844.97;5068542;28;20195;-64
2022/08/17 04:22:15;;;;;;;1.13;1.13;;;;;;;25.22;45.44;94847.56;5040647;28;20208;-65
2022/08/17 04:25:14;;;;;;;0.80;0.80;;;;;;;25.48;45.21;94849.72;5066396;28;20203;-65
2022/08/17 04:27:41;;;;;;;2.10;1.67;;;;;;;25.55;44.52;94844.50;5039283;28;20232;-63
2022/08/17 04:30:08;;;;;;;17.80;3.10;;;;;;;25.54;44.76;94851.00;5064987;28;20196;-64
2022/08/17 04:32:57;;;;;;;1.37;1.27;;;;;;;25.78;44.46;94854.22;5062849;28;20233;-64
2022/08/17 04:35:37;;;;;;;1.37;1.27;;;;;;;25.79;44.00;94863.03;5032705;28;20298;-61
2022/08/17 04:38:06;;;;;;;1.37;1.00;;;;;;;25.88;44.25;94856.34;5033892;28;20722;-62
2022/08/17 04:43:21;;;;;;;0.33;0.33;;;;;;;25.88;44.26;94863.63;5044546;28;20256;-65
2022/08/17 04:45:53;;;;;;;0.63;0.60;;;;;;;26.00;43.66;94856.19;5042932;28;20630;-63
2022/08/17 04:48:32;;;;;;;3.00;2.77;;;;;;;26.28;42.83;94863.28;5041331;28;20210;-66
2022/08/17 04:51:10;;;;;;;6.10;4.67;;;;;;;26.25;43.03;94870.16;5030793;28;20201;-68
2022/08/17 04:53:40;;;;;;;3.40;2.80;;;;;;;26.22;43.22;94876.25;5066097;28;20219;-65
2022/08/17 04:56:08;;;;;;;4.30;2.03;;;;;;;26.49;42.34;94877.13;5051473;28;20255;-62
2022/08/17 04:58:44;;;;;;;6.07;5.43;;;;;;;26.50;42.99;94881.38;5066348;28;20200;-64
2022/08/17 05:01:11;;;;;;;4.83;3.80;;;;;;;26.55;42.62;94873.03;5061922;28;20201;-68
2022/08/17 05:03:38;;;;;;;1.00;1.00;;;;;;;26.44;42.96;94872.06;5067887;28;20287;-66
2022/08/17 05:06:05;;;;;;;1.90;1.40;;;;;;;26.44;42.66;94872.81;5063400;28;20632;-69
2022/08/17 05:08:32;;;;;;;1.30;0.67;;;;;;;26.03;42.85;94873.53;5037985;28;20212;-65
2022/08/17 05:10:59;;;;;;;0.60;0.60;;;;;;;25.43;43.40;94860.72;5051347;28;20722;-68
2022/08/17 05:13:30;;;;;;;0.73;0.73;;;;;;;25.58;43.54;94867.97;5064460;28;20204;-69
2022/08/17 05:15:59;;;;;;;1.97;1.80;;;;;;;25.54;43.47;94872.47;5045818;28;20694;-65
2022/08/17 05:18:28;;;;;;;0.70;0.70;;;;;;;26.13;43.16;94875.66;5043443;28;20294;-66
2022/08/17 05:20:56;;;;;;;2.63;1.20;;;;;;;26.18;43.11;94877.31;5037389;28;20224;-65
2022/08/17 05:23:25;;;;;;;1.70;1.07;;;;;;;26.44;42.79;94880.13;5051073;28;20701;-67
2022/08/17 05:26:02;;;;;;;0.70;0.70;;;;;;;26.63;42.37;94885.47;5050800;28;20231;-64
2022/08/17 05:28:33;;;;;;;4.37;2.27;;;;;;;26.71;41.77;94887.19;5051107;28;20262;-64
2022/08/17 05:31:02;;;;;;;1.07;0.93;;;;;;;26.67;41.99;94860.22;5054614;28;20188;-62
2022/08/17 05:33:33;;;;;;;0.60;0.60;;;;;;;26.31;42.27;94874.13;5060682;28;20212;-64
2022/08/17 05:36:02;;;;;;;0.37;0.37;;;;;;;26.48;43.07;94879.03;5038926;28;20224;-66
2022/08/17 05:38:29;;;;;;;0.90;0.90;;;;;;;26.56;41.56;94879.97;5061958;28;20234;-66
2022/08/17 05:40:57;;;;;;;0.60;0.60;;;;;;;27.06;41.61;94881.63;5063534;28;20207;-67
2022/08/17 05:43:28;;;;;;;0.50;0.50;;;;;;;26.70;42.37;94885.59;5038555;28;20192;-64
2022/08/17 05:46:05;;;;;;;1.57;1.23;;;;;;;26.28;42.17;94880.19;5036449;28;20199;-67
2022/08/17 05:48:45;;;;;;;1.60;1.27;;;;;;;26.13;42.19;94883.72;5058297;28;20195;-65
2022/08/17 05:52:00;;;;;;;0.93;0.93;;;;;;;26.76;41.09;94879.59;5041539;28;20737;-64
2022/08/17 05:54:43;;;;;;;0.30;0.30;;;;;;;27.04;41.74;94874.69;5060947;28;20211;-65
2022/08/17 05:57:40;;;;;;;0.30;0.30;;;;;;;27.46;40.76;94876.53;5039959;28;20249;-65
2022/08/17 06:00:58;;;;;;;1.20;1.03;;;;;;;27.28;41.57;94883.53;5070465;28;20208;-68
2022/08/17 06:03:34;;;;;;;0.73;0.73;;;;;;;27.26;41.55;94880.44;5042638;28;20200;-65
2022/08/17 06:06:16;;;;;;;0.50;0.50;;;;;;;27.59;40.86;94884.03;5069956;28;20586;-67
2022/08/17 06:08:49;;;;;;;6.63;2.43;;;;;;;27.57;40.77;94880.91;5070090;28;20290;-66
2022/08/17 06:11:23;;;;;;;2.00;1.70;;;;;;;27.43;40.82;94875.34;5052118;28;20220;-64
2022/08/17 06:14:46;;;;;;;0.50;0.50;;;;;;;27.56;40.72;94886.66;5060220;28;20287;-64
2022/08/17 06:17:20;;;;;;;0.70;0.70;;;;;;;27.67;40.97;94876.81;5049391;28;20251;-66
2022/08/17 06:19:55;;;;;;;2.33;1.60;;;;;;;27.45;42.06;94880.34;5058568;28;20799;-66
2022/08/17 06:22:26;;;;;;;1.50;1.40;;;;;;;27.81;40.72;94885.09;5046589;28;20207;-65
2022/08/17 06:24:59;;;;;;;1.07;0.87;;;;;;;27.99;40.28;94883.47;5030545;28;20205;-63
2022/08/17 06:27:57;;;;;;;1.00;1.00;;;;;;;28.12;40.11;94873.22;5048127;28;20287;-66
2022/08/17 06:30:27;;;;;;;1.40;1.30;;;;;;;27.37;42.45;94884.84;5044896;28;20591;-66
2022/08/17 06:33:21;;;;;;;0.60;0.60;;;;;;;27.46;42.14;94884.59;5045847;28;20575;-66
2022/08/17 06:36:01;;;;;;;1.77;1.53;;;;;;;27.67;41.42;94874.13;5068089;28;20693;-64
2022/08/17 06:38:55;;;;;;;1.50;1.20;;;;;;;27.81;41.16;94877.81;5050170;28;20226;-63
2022/08/17 06:41:43;;;;;;;0.60;0.60;;;;;;;28.32;40.14;94872.69;5041442;28;20306;-66
2022/08/17 06:44:19;;;;;;;1.70;1.60;;;;;;;28.09;40.43;94882.81;5042136;28;20201;-65
2022/08/17 06:47:49;;;;;;;1.47;1.17;;;;;;;27.96;41.03;94878.78;5050001;28;20200;-67
2022/08/17 06:50:41;;;;;;;0.73;0.73;;;;;;;28.65;39.73;94870.00;5020273;28;20213;-65
2022/08/17 06:53:36;;;;;;;7.73;1.30;;;;;;;28.77;39.17;94872.44;5062818;28;20277;-66
2022/08/17 06:56:07;;;;;;;0.83;0.53;;;;;;;28.36;40.11;94872.72;5050117;28;20212;-63
2022/08/17 06:58:37;;;;;;;1.77;1.30;;;;;;;28.21;40.98;94871.03;5062527;28;20215;-66
2022/08/17 07:01:27;;;;;;;1.57;1.30;;;;;;;28.95;39.40;94859.91;5051385;28;20517;-66
2022/08/17 07:04:14;;;;;;;0.80;0.80;;;;;;;29.30;38.13;94872.16;5063233;28;20638;-66
2022/08/17 07:06:56;;;;;;;2.27;1.50;;;;;;;29.41;38.02;94867.63;5035648;28;20212;-67
2022/08/17 07:09:36;;;;;;;1.33;1.10;;;;;;;29.08;39.64;94859.59;5037324;28;20204;-65
2022/08/17 07:12:16;;;;;;;0.50;0.43;;;;;;;28.69;40.36;94862.72;5065528;28;20662;-66
2022/08/17 07:15:09;;;;;;;0.83;0.83;;;;;;;28.99;40.11;94868.78;5051143;28;20224;-69
2022/08/17 07:17:37;;;;;;;0.30;0.30;;;;;;;29.13;39.33;94870.06;5053353;28;20732;-67
2022/08/17 07:20:19;;;;;;;1.47;1.37;;;;;;;29.38;38.06;94869.13;5057245;28;20206;-64
2022/08/17 07:22:55;;;;;;;0.50;0.50;;;;;;;29.45;36.74;94868.41;5050218;28;20196;-65
2022/08/17 07:25:28;;;;;;;0.83;0.83;;;;;;;29.46;36.84;94859.16;5063427;28;20242;-66
2022/08/17 07:28:01;;;;;;;1.67;1.10;;;;;;;29.56;38.08;94869.25;5063228;28;20199;-66
2022/08/17 07:30:47;;;;;;;1.73;1.00;;;;;;;29.99;37.33;94857.56;5063795;28;20211;-66
2022/08/17 07:33:18;;;;;;;0.70;0.70;;;;;;;30.17;35.87;94847.59;5054703;28;20212;-65
2022/08/17 07:35:47;;;;;;;4.77;1.47;;;;;;;30.34;35.60;94860.44;5056433;28;20199;-65
2022/08/17 07:38:18;;;;;;;1.23;1.13;;;;;;;30.44;35.48;94854.28;5036536;28;20216;-64
2022/08/17 07:41:01;;;;;;;0.60;0.60;;;;;;;30.45;36.30;94853.16;5049393;28;20205;-67
2022/08/17 07:43:38;;;;;;;0.77;0.77;;;;;;;30.40;37.06;94853.50;5049531;28;20200;-63
2022/08/17 07:48:54;;;;;;;1.13;1.13;;;;;;;30.83;35.30;94855.19;5060436;28;20204;-68
2022/08/17 07:51:38;;;;;;;2.10;1.03;;;;;;;30.82;35.88;94852.88;5041393;28;20213;-66
2022/08/17 07:54:14;;;;;;;0.63;0.63;;;;;;;31.18;34.86;94845.53;5059290;28;20204;-66
2022/08/17 07:56:43;;;;;;;1.00;0.87;;;;;;;30.93;35.70;94831.97;5035753;28;20205;-68
2022/08/17 07:59:12;;;;;;;0.83;0.57;;;;;;;31.21;35.55;94847.47;5069543;28;20219;-65
2022/08/17 08:01:44;;;;;;;16.07;2.37;;;;;;;31.16;33.88;94842.44;5069578;28;20199;-64
2022/08/17 08:04:26;;;;;;;1.20;0.90;;;;;;;31.59;33.53;94844.75;5036165;28;20205;-67
2022/08/17 08:07:16;;;;;;;0.30;0.27;;;;;;;30.52;34.62;94850.47;5048855;28;20203;-65
2022/08/17 08:10:02;;;;;;;0.73;0.60;;;;;;;31.12;33.42;94850.56;5049524;28;20193;-65
2022/08/17 08:12:35;;;;;;;0.90;0.90;;;;;;;31.21;33.66;94847.47;5054077;28;20219;-66
2022/08/17 08:15:08;;;;;;;1.27;0.93;;;;;;;30.95;33.91;94850.56;5068884;28;20215;-65
2022/08/17 08:17:48;;;;;;;0.80;0.80;;;;;;;31.41;33.14;94852.13;5054389;28;20218;-66
2022/08/17 08:20:15;;;;;;;0.70;0.70;;;;;;;31.69;32.94;94841.25;5045920;28;20201;-64
2022/08/17 08:23:14;;;;;;;0.97;0.67;;;;;;;31.79;32.18;94839.66;5048249;28;20203;-64
2022/08/17 08:26:29;;;;;;;0.87;0.83;;;;;;;31.54;32.00;94847.06;5040790;28;20686;-67
2022/08/17 08:29:17;;;;;;;0.77;0.77;;;;;;;32.17;33.17;94833.38;5047603;28;20231;-65
2022/08/17 08:31:56;;;;;;;0.90;0.90;;;;;;;32.12;31.60;94831.06;5043150;28;20195;-64
2022/08/17 08:34:43;;;;;;;0.30;0.30;;;;;;;32.05;31.24;94836.53;5066657;28;20199;-64
2022/08/17 08:37:46;;;;;;;0.40;0.40;;;;;;;31.74;31.11;94831.94;5043540;28;20702;-67
2022/08/17 08:40:34;;;;;;;0.43;0.43;;;;;;;32.40;31.44;94817.38;5053630;28;20581;-66
2022/08/17 08:43:04;;;;;;;0.60;0.60;;;;;;;32.74;30.99;94820.28;5036152;28;20232;-64
2022/08/17 08:45:47;;;;;;;0.97;0.93;;;;;;;32.88;30.63;94819.44;5041181;28;20200;-64
2022/08/17 08:48:35;;;;;;;2.83;1.20;;;;;;;31.83;30.85;94829.59;5070162;28;20554;-64
2022/08/17 08:51:58;;;;;;;0.57;0.57;;;;;;;32.30;31.81;94825.59;5039111;28;20193;-65
2022/08/17 08:54:34;;;;;;;0.40;0.40;;;;;;;32.47;30.11;94809.22;5058474;28;20196;-65
2022/08/17 08:57:30;;;;;;;0.70;0.63;;;;;;;32.62;31.02;94818.84;5034795;28;20270;-65
2022/08/17 09:00:13;;;;;;;1.40;1.07;;;;;;;32.83;30.96;94809.00;5037818;28;20300;-64
2022/08/17 09:03:11;;;;;;;0.40;0.40;;;;;;;33.27;30.78;94806.34;5055251;28;20742;-66
2022/08/17 09:06:05;;;;;;;0.87;0.87;;;;;;;33.28;30.37;94805.16;5045462;28;20193;-66
2022/08/17 09:09:10;;;;;;;0.40;0.40;;;;;;;33.44;30.51;94808.13;5045546;28;20201;-64
2022/08/17 09:11:51;;;;;;;0.60;0.60;;;;;;;33.66;30.38;94798.63;5031464;28;20205;-64
2022/08/17 09:14:43;;;;;;;1.40;0.97;;;;;;;33.58;28.56;94811.50;5046397;28;20223;-64
2022/08/17 09:17:57;;;;;;;0.80;0.80;;;;;;;33.34;29.26;94798.88;5069352;28;20548;-64
2022/08/17 09:20:50;;;;;;;0.40;0.40;;;;;;;33.26;28.29;94796.66;5040299;28;20195;-64
2022/08/17 09:23:41;;;;;;;0.67;0.67;;;;;;;33.28;27.79;94802.47;5071410;28;20206;-63
2022/08/17 09:26:21;;;;;;;0.83;0.83;;;;;;;32.73;28.55;94805.19;5065716;28;20212;-66
2022/08/17 09:29:00;;;;;;;2.20;0.97;;;;;;;32.96;28.05;94794.56;5064787;28;20200;-66
2022/08/17 09:31:40;;;;;;;0.30;0.30;;;;;;;33.67;28.57;94806.34;5045261;28;20222;-65
2022/08/17 09:34:20;;;;;;;0.53;0.53;;;;;;;34.18;27.55;94805.41;5057805;28;20282;-64
2022/08/17 09:37:10;;;;;;;0.57;0.57;;;;;;;34.18;27.87;94810.84;5071657;28;20286;-64
2022/08/17 09:39:57;;;;;;;1.03;0.77;;;;;;;33.69;27.38;94805.94;5048670;28;20225;-65
2022/08/17 09:42:43;;;;;;;2.77;2.03;;;;;;;34.40;26.60;94800.44;5057637;28;20243;-66
2022/08/17 09:45:41;;;;;;;0.33;0.33;;;;;;;34.14;26.85;94788.34;5048021;28;20217;-65
2022/08/17 09:48:23;;;;;;;1.37;0.67;;;;;;;33.55;27.16;94797.94;5066033;28;20736;-65
2022/08/17 09:51:05;;;;;;;0.90;0.90;;;;;;;33.22;28.17;94799.41;5039171;28;20199;-65
2022/08/17 09:53:37;;;;;;;1.90;0.93;;;;;;;34.24;28.27;94803.78;5030908;28;20654;-63
2022/08/17 09:56:47;;;;;;;0.67;0.67;;;;;;;34.62;27.40;94791.63;5036823;28;20212;-63
2022/08/17 09:59:55;;;;;;;0.40;0.40;;;;;;;34.54;26.16;94779.28;5041595;28;20204;-63
2022/08/17 10:02:39;;;;;;;0.77;0.77;;;;;;;34.48;26.65;94791.06;5064502;28;20274;-65
2022/08/17 10:05:20;;;;;;;0.40;0.40;;;;;;;34.99;27.72;94781.75;5080033;28;20628;-64
2022/08/17 10:07:54;;;;;;;0.43;0.43;;;;;;;34.66;25.51;94786.91;5058337;28;20231;-64
2022/08/17 10:10:30;;;;;;;3.73;0.83;;;;;;;33.95;26.45;94780.84;5042053;28;20208;-64
2022/08/17 10:13:22;;;;;;;0.40;0.40;;;;;;;33.87;26.15;94773.91;5061785;28;20220;-65
2022/08/17 10:16:03;;;;;;;1.43;1.00;;;;;;;34.47;25.87;94768.50;5053545;28;20686;-64
2022/08/17 10:19:00;;;;;;;0.43;0.43;;;;;;;34.40;26.30;94774.00;5070304;28;20666;-65
2022/08/17 10:27:53;;;;;;;0.90;0.90;;;;;;;34.20;25.55;94759.53;5035226;28;20184;-66
2022/08/17 10:30:25;;;;;;;1.50;0.93;;;;;;;34.74;25.13;94766.53;5038272;28;20934;-64
2022/08/17 10:32:58;;;;;;;0.83;0.83;;;;;;;34.72;24.27;94768.94;5039659;28;20274;-66
2022/08/17 10:35:43;;;;;;;0.67;0.67;;;;;;;34.35;23.86;94766.31;5070317;28;20245;-65
2022/08/17 10:38:27;;;;;;;0.50;0.50;;;;;;;33.98;24.18;94763.69;5042485;28;20311;-65
2022/08/17 10:41:02;;;;;;;0.27;0.27;;;;;;;34.41;24.43;94769.34;5055315;28;20568;-65
2022/08/17 10:44:22;;;;;;;0.40;0.40;;;;;;;35.12;24.57;94758.19;5069466;28;20199;-64
2022/08/17 10:47:07;;;;;;;0.50;0.50;;;;;;;34.50;23.75;94756.81;5054591;28;20202;-63
2022/08/17 10:49:37;;;;;;;1.73;1.57;;;;;;;34.06;24.52;94742.63;5052860;28;20548;-65
2022/08/17 10:52:23;;;;;;;1.53;1.30;;;;;;;34.47;24.28;94757.63;5045733;28;20191;-64
2022/08/17 10:54:50;;;;;;;1.13;1.03;;;;;;;34.48;24.39;94758.41;5052535;28;20570;-66
2022/08/17 10:57:44;;;;;;;0.57;0.57;;;;;;;34.45;24.00;94754.53;5043212;28;20196;-63
2022/08/17 11:00:33;;;;;;;2.83;1.03;;;;;;;34.95;24.01;94742.91;5040140;28;20201;-66
2022/08/17 11:03:02;;;;;;;0.30;0.30;;;;;;;34.34;24.40;94751.16;5049671;28;20200;-68
2022/08/17 11:05:39;;;;;;;0.57;0.57;;;;;;;34.60;23.82;94744.97;5049630;28;20192;-65
2022/08/17 11:08:30;;;;;;;1.33;1.23;;;;;;;35.04;23.83;94734.97;5049259;28;20207;-64
2022/08/17 11:11:18;;;;;;;3.13;1.93;;;;;;;36.01;23.46;94734.34;5043134;28;20200;-65
2022/08/17 11:14:07;;;;;;;0.90;0.90;;;;;;;35.99;23.44;94739.44;5050460;28;20209;-65
2022/08/17 11:16:52;;;;;;;0.80;0.70;;;;;;;36.43;23.83;94736.19;5069338;28;20214;-64
2022/08/17 11:19:46;;;;;;;0.80;0.80;;;;;;;36.16;23.12;94735.59;5050194;28;20220;-64
2022/08/17 11:22:18;;;;;;;2.37;0.87;;;;;;;36.53;23.31;94737.88;5034424;28;20197;-64
2022/08/17 11:24:50;;;;;;;0.47;0.47;;;;;;;36.80;25.00;94742.34;5037407;28;20639;-65
2022/08/17 11:27:31;;;;;;;1.33;1.23;;;;;;;36.43;24.51;94746.31;5049981;28;20234;-64
2022/08/17 11:30:04;;;;;;;1.70;0.83;;;;;;;35.83;25.65;94738.59;5052007;28;20593;-65
2022/08/17 11:32:40;;;;;;;0.40;0.40;;;;;;;36.01;26.17;94747.97;5042908;28;20205;-65
2022/08/17 11:35:20;;;;;;;0.30;0.30;;;;;;;36.04;25.06;94741.66;5039036;28;20192;-64
2022/08/17 11:37:57;;;;;;;0.40;0.40;;;;;;;36.40;24.44;94741.72;5055668;28;20634;-65
2022/08/17 11:40:49;;;;;;;0.67;0.67;;;;;;;35.79;25.27;94752.28;5061737;28;20266;-64
2022/08/17 11:43:40;;;;;;;0.40;0.40;;;;;;;35.60;25.15;94758.53;5063141;28;20315;-64
2022/08/17 11:52:46;;;;;;;0.77;0.77;;;;;;;35.19;26.71;94763.50;5046572;28;20196;-65
2022/08/17 11:55:34;;;;;;;3.70;1.43;;;;;;;35.11;26.79;94776.47;5057581;28;20205;-65
2022/08/17 11:58:29;;;;;;;1.13;1.03;;;;;;;34.80;27.62;94780.44;5042200;28;20278;-64
2022/08/17 12:01:22;;;;;;;0.60;0.57;;;;;;;33.97;28.83;94773.03;5051816;28;20205;-64
2022/08/17 12:03:55;;;;;;;0.97;0.73;;;;;;;34.84;28.59;94785.84;5052259;28;20200;-65
2022/08/17 12:06:26;;;;;;;32.77;2.03;;;;;;;35.06;28.51;94792.53;5064591;28;20207;-64
2022/08/17 12:09:10;;;;;;;0.57;0.57;;;;;;;34.94;28.41;94795.84;5038287;28;20205;-65
2022/08/17 12:11:50;;;;;;;0.70;0.70;;;;;;;35.04;28.11;94794.88;5037364;28;20197;-66
2022/08/17 12:14:40;;;;;;;0.67;0.67;;;;;;;35.17;27.77;94787.66;5062475;28;20202;-64
2022/08/17 12:17:30;;;;;;;1.13;1.07;;;;;;;35.19;28.19;94786.09;5064999;28;20210;-65
2022/08/17 12:20:39;;;;;;;0.97;0.97;;;;;;;35.29;27.46;94778.91;5065829;28;20219;-65
2022/08/17 12:23:49;;;;;;;0.70;0.57;;;;;;;35.71;26.20;94789.09;5060367;28;20253;-65
2022/08/17 12:26:23;;;;;;;0.97;0.97;;;;;;;35.21;26.56;94780.22;5057470;28;20203;-64
2022/08/17 12:29:02;;;;;;;0.63;0.63;;;;;;;35.38;27.25;94787.31;5064835;28;20678;-64
2022/08/17 12:31:43;;;;;;;1.10;1.00;;;;;;;35.70;26.27;94782.06;5040995;28;20678;-65
2022/08/17 12:34:33;;;;;;;2.70;0.67;;;;;;;34.67;28.06;94777.53;5036588;28;20188;-64
2022/08/17 12:37:18;;;;;;;0.83;0.80;;;;;;;34.86;27.49;94778.03;5036607;28;20818;-66
2022/08/17 12:39:56;;;;;;;1.17;0.97;;;;;;;34.98;28.02;94780.22;5024265;28;20272;-65
2022/08/17 12:42:28;;;;;;;0.67;0.67;;;;;;;34.88;27.59;94775.66;5050189;28;20227;-65
2022/08/17 12:44:55;;;;;;;22.33;13.30;;;;;;;35.17;27.54;94765.88;5031943;28;20589;-64
2022/08/17 12:47:23;;;;;;;4.90;4.47;;;;;;;35.61;27.07;94760.06;5043322;28;20200;-63
2022/08/17 12:50:07;;;;;;;1.20;1.13;;;;;;;35.65;27.55;94758.81;5048708;28;20691;-64
2022/08/17 12:52:54;;;;;;;1.10;1.07;;;;;;;36.13;26.21;94750.06;5050590;28;20207;-64
2022/08/17 12:55:33;;;;;;;1.13;1.03;;;;;;;36.54;25.44;94749.56;5036939;28;20207;-65